Time;durP1;ratioP1;P1;durP2;ratioP2;P2;SDS_P1;SDS_P2;PMS_P1;PMS_P2;Temp;Humidity;BMP_temperature;BMP_pressure;BME280_temperature;BME280_humidity;BME280_pressure;Samples;Min_cycle;Max_cycle;Signal;HPM_P1;HPM_P2
2022/02/12 00:01:47;;;;;;;6.03;2.72;;;205.00;2252.80;;;;;;5068055;28;20025;-72
2022/02/12 00:04:13;;;;;;;5.25;3.22;;;205.00;2252.80;;;;;;5068069;28;20040;-72
2022/02/12 00:06:38;;;;;;;10.25;3.42;;;205.00;2252.80;;;;;;5066163;28;20099;-71
2022/02/12 00:09:04;;;;;;;5.88;2.50;;;205.00;2252.80;;;;;;5061689;28;20119;-71
2022/02/12 00:11:30;;;;;;;6.20;2.78;;;205.00;2252.80;;;;;;5070377;28;20021;-72
2022/02/12 00:13:55;;;;;;;4.65;3.17;;;205.00;2252.80;;;;;;5070926;28;20384;-72
2022/02/12 00:16:21;;;;;;;5.47;3.38;;;205.00;2252.80;;;;;;5071945;28;20450;-72
2022/02/12 00:18:47;;;;;;;8.73;3.17;;;204.90;2252.80;;;;;;5067633;28;20044;-71
2022/02/12 00:21:12;;;;;;;4.78;3.08;;;205.00;2252.80;;;;;;5069891;28;20103;-71
2022/02/12 00:23:38;;;;;;;6.90;3.25;;;205.00;2252.80;;;;;;5065271;28;20410;-71
2022/02/12 00:26:04;;;;;;;5.28;3.33;;;204.90;2252.80;;;;;;5024070;28;1271966;-72
2022/02/12 00:28:30;;;;;;;6.82;4.13;;;205.00;2252.80;;;;;;5062954;28;20055;-72
2022/02/12 00:30:55;;;;;;;7.30;3.60;;;205.00;2252.80;;;;;;5067607;28;20050;-72
2022/02/12 00:33:21;;;;;;;8.20;3.08;;;204.90;2252.80;;;;;;5071271;28;20471;-72
2022/02/12 00:35:47;;;;;;;4.47;2.95;;;204.90;2252.80;;;;;;5071825;28;20115;-72
2022/02/12 00:38:13;;;;;;;4.45;2.97;;;204.90;2252.80;;;;;;5079517;28;20052;-72
2022/02/12 00:40:38;;;;;;;7.18;3.40;;;204.80;2252.80;;;;;;5073397;28;20472;-72
2022/02/12 00:43:04;;;;;;;6.65;4.28;;;204.80;2252.80;;;;;;5072219;28;20484;-72
2022/02/12 00:45:30;;;;;;;7.70;3.40;;;204.80;2252.80;;;;;;5070748;28;20483;-72
2022/02/12 00:47:55;;;;;;;6.25;3.33;;;204.80;2252.80;;;;;;5072686;28;20075;-72
2022/02/12 00:50:21;;;;;;;5.43;2.72;;;204.80;2252.80;;;;;;5072856;28;20012;-72
2022/02/12 00:52:47;;;;;;;9.68;3.42;;;204.80;2252.80;;;;;;5072907;28;20043;-73
2022/02/12 00:55:13;;;;;;;5.10;3.72;;;204.80;2252.80;;;;;;5071776;28;20491;-72
2022/02/12 00:57:38;;;;;;;4.32;2.78;;;204.80;2252.80;;;;;;5072869;28;20040;-72
2022/02/12 01:00:06;;;;;;;5.22;3.35;;;204.80;2252.80;;;;;;5072453;28;20024;-72
2022/02/12 01:02:32;;;;;;;5.75;3.03;;;204.80;2252.80;;;;;;5071113;28;20020;-72
2022/02/12 01:04:57;;;;;;;4.75;2.97;;;204.80;2252.80;;;;;;5068416;28;20043;-72
2022/02/12 01:07:23;;;;;;;5.20;3.40;;;204.80;2252.80;;;;;;5072669;28;20479;-72
2022/02/12 01:09:49;;;;;;;4.88;3.28;;;180.10;2252.80;;;;;;5071552;28;20032;-72
2022/02/12 01:12:15;;;;;;;4.10;2.95;;;180.10;2252.80;;;;;;5072553;28;20021;-71
2022/02/12 01:14:41;;;;;;;7.35;3.30;;;180.10;2252.80;;;;;;5072321;28;20090;-71
2022/02/12 01:17:10;;;;;;;4.25;2.78;;;180.10;2252.80;;;;;;5071853;28;20024;-71
2022/02/12 01:19:36;;;;;;;3.90;2.65;;;180.10;2252.80;;;;;;5071866;28;20027;-72
2022/02/12 01:22:01;;;;;;;4.32;2.90;;;180.10;2252.80;;;;;;5072029;28;20150;-72
2022/02/12 01:24:27;;;;;;;4.82;2.92;;;180.10;2252.80;;;;;;5068969;28;20165;-72
2022/02/12 01:26:56;;;;;;;12.50;3.65;;;180.10;2252.80;;;;;;5067523;28;20037;-72
2022/02/12 01:29:21;;;;;;;5.28;3.10;;;180.10;2252.80;;;;;;5080882;28;20052;-72
2022/02/12 01:31:47;;;;;;;4.50;2.83;;;180.00;2252.80;;;;;;5070342;28;20460;-72
2022/02/12 01:34:13;;;;;;;4.88;2.90;;;180.00;2252.80;;;;;;5069601;28;20111;-72
2022/02/12 01:36:39;;;;;;;5.55;3.30;;;180.10;2252.80;;;;;;5066706;28;20020;-73
2022/02/12 01:39:06;;;;;;;9.30;4.22;;;180.00;2252.80;;;;;;5068246;28;20035;-73
2022/02/12 01:41:32;;;;;;;8.70;3.28;;;180.00;2252.80;;;;;;5070508;28;20467;-72
2022/02/12 01:44:07;;;;;;;5.53;3.72;;;180.00;2252.80;;;;;;5067446;28;20075;-73
2022/02/12 01:46:33;;;;;;;5.30;3.38;;;180.00;2252.80;;;;;;5068331;28;20031;-72
2022/02/12 01:48:59;;;;;;;7.55;3.85;;;180.00;2252.80;;;;;;5068497;28;20032;-73
2022/02/12 01:51:26;;;;;;;8.55;2.95;;;180.00;2252.80;;;;;;5070431;28;20037;-72
2022/02/12 01:53:54;;;;;;;5.10;3.28;;;180.00;2252.80;;;;;;5071009;28;20020;-73
2022/02/12 01:56:20;;;;;;;4.95;3.05;;;180.00;2252.80;;;;;;5071210;28;20040;-73
2022/02/12 01:58:46;;;;;;;6.25;3.65;;;180.00;2252.80;;;;;;5072186;28;20029;-72
2022/02/12 02:01:13;;;;;;;6.90;3.28;;;179.90;2252.80;;;;;;5072048;28;20013;-73
2022/02/12 02:03:39;;;;;;;5.80;3.65;;;179.90;2252.80;;;;;;5070638;28;20035;-72
2022/02/12 02:06:05;;;;;;;5.20;3.83;;;179.90;2252.80;;;;;;5069697;28;20039;-72
2022/02/12 02:08:31;;;;;;;5.43;3.38;;;179.90;2252.80;;;;;;5069444;28;20030;-72
2022/02/12 02:10:57;;;;;;;5.07;3.80;;;179.90;2252.80;;;;;;5072147;28;20063;-72
2022/02/12 02:13:27;;;;;;;7.07;3.70;;;179.80;2252.80;;;;;;5072245;28;20056;-72
2022/02/12 02:15:53;;;;;;;7.47;3.72;;;179.90;2252.80;;;;;;5071913;28;20044;-72
2022/02/12 02:18:19;;;;;;;6.80;3.58;;;179.80;2252.80;;;;;;5072199;28;20463;-72
2022/02/12 02:20:45;;;;;;;7.22;3.88;;;179.80;2252.80;;;;;;5071669;28;20025;-72
2022/02/12 02:23:11;;;;;;;5.60;3.42;;;179.80;2252.80;;;;;;5071405;28;20017;-72
2022/02/12 02:25:37;;;;;;;8.00;4.00;;;179.80;2252.80;;;;;;5071459;28;20411;-72
2022/02/12 02:28:03;;;;;;;5.93;3.53;;;179.80;2252.80;;;;;;5071766;28;20025;-71
2022/02/12 02:30:30;;;;;;;5.88;3.70;;;179.70;2252.80;;;;;;5071955;28;20032;-72
2022/02/12 02:32:55;;;;;;;6.03;4.15;;;179.70;2252.80;;;;;;5066219;28;20017;-72
2022/02/12 02:35:22;;;;;;;5.82;3.78;;;179.70;2252.80;;;;;;5067720;28;20435;-72
2022/02/12 02:37:49;;;;;;;7.15;4.65;;;179.70;2252.80;;;;;;5071898;28;20427;-72
2022/02/12 02:40:17;;;;;;;6.30;3.55;;;179.70;2252.80;;;;;;5066620;28;20403;-73
2022/02/12 02:42:47;;;;;;;8.60;3.42;;;179.70;2252.80;;;;;;5053118;28;20021;-72
2022/02/12 02:45:14;;;;;;;5.70;3.88;;;179.70;2252.80;;;;;;5072007;28;20033;-72
2022/02/12 02:47:41;;;;;;;7.05;3.40;;;179.70;2252.80;;;;;;5071891;28;20139;-73
2022/02/12 02:56:00;;;;;;;6.00;3.85;;;179.60;2252.80;;;;;;5071721;28;20404;-73
2022/02/12 02:58:45;;;;;;;4.35;2.92;;;179.60;2252.80;;;;;;5070352;28;20025;-73
2022/02/12 03:01:18;;;;;;;5.90;3.37;;;179.60;2252.80;;;;;;5071494;28;20460;-72
2022/02/12 03:03:46;;;;;;;6.13;3.80;;;179.60;2252.80;;;;;;5068867;28;20048;-72
2022/02/12 03:06:13;;;;;;;5.10;3.17;;;179.60;2252.80;;;;;;5067499;28;20060;-73
2022/02/12 03:08:40;;;;;;;6.55;4.03;;;179.50;2252.80;;;;;;5070538;28;20469;-73
2022/02/12 03:11:08;;;;;;;8.65;3.92;;;179.50;2252.80;;;;;;5068834;28;20040;-72
2022/02/12 03:13:33;;;;;;;6.85;4.32;;;179.50;2252.80;;;;;;5069120;28;20517;-72
2022/02/12 03:15:59;;;;;;;6.72;3.40;;;179.50;2252.80;;;;;;5069737;28;20032;-72
2022/02/12 03:18:28;;;;;;;4.60;3.33;;;179.50;2252.80;;;;;;5071354;28;20086;-72
2022/02/12 03:20:54;;;;;;;7.45;3.15;;;179.40;2252.80;;;;;;5074510;28;20028;-72
2022/02/12 03:23:20;;;;;;;5.90;2.80;;;179.40;2252.80;;;;;;5073775;28;20020;-73
2022/02/12 03:25:46;;;;;;;5.20;2.92;;;179.40;2252.80;;;;;;5074235;28;20094;-72
2022/02/12 03:28:12;;;;;;;4.63;2.70;;;179.40;2252.80;;;;;;5074916;28;20028;-72
2022/02/12 03:30:40;;;;;;;4.75;3.10;;;179.40;2252.80;;;;;;5075158;28;20111;-73
2022/02/12 03:33:06;;;;;;;5.53;2.90;;;179.40;2252.80;;;;;;5074537;28;20082;-72
2022/02/12 03:35:33;;;;;;;9.07;3.65;;;179.30;2252.80;;;;;;5074983;28;20032;-72
2022/02/12 03:38:26;;;;;;;5.63;3.28;;;179.30;2252.80;;;;;;5074567;28;20016;-71
2022/02/12 03:40:56;;;;;;;4.68;2.90;;;179.30;2252.80;;;;;;5072908;28;20033;-72
2022/02/12 03:43:22;;;;;;;6.63;2.83;;;179.30;2252.80;;;;;;5075208;28;20021;-71
2022/02/12 03:45:48;;;;;;;4.22;3.08;;;179.30;2252.80;;;;;;5074545;28;20097;-72
2022/02/12 03:48:14;;;;;;;5.63;2.90;;;179.30;2252.80;;;;;;5074964;28;20036;-73
2022/02/12 03:50:40;;;;;;;12.80;4.03;;;179.30;2252.80;;;;;;5074534;28;20040;-73
2022/02/12 03:53:08;;;;;;;5.07;3.33;;;179.20;2252.80;;;;;;5074353;28;20467;-70
2022/02/12 03:55:37;;;;;;;7.80;3.80;;;179.20;2252.80;;;;;;5074562;28;20115;-71
2022/02/12 03:58:05;;;;;;;7.18;3.67;;;179.20;2252.80;;;;;;5074422;28;20031;-74
2022/02/12 04:00:30;;;;;;;9.18;3.80;;;179.30;2252.80;;;;;;5073207;28;20455;-71
2022/02/12 04:02:57;;;;;;;4.95;3.17;;;179.30;2252.80;;;;;;5074522;28;20024;-72
2022/02/12 04:05:23;;;;;;;6.90;4.15;;;179.30;2252.80;;;;;;5074403;28;20384;-72
2022/02/12 04:07:49;;;;;;;4.72;3.05;;;179.30;2252.80;;;;;;5074280;28;20020;-71
2022/02/12 04:10:17;;;;;;;5.15;2.85;;;179.20;2252.80;;;;;;5072824;28;20049;-72
2022/02/12 04:12:44;;;;;;;6.55;3.75;;;179.20;2252.80;;;;;;5072705;28;20032;-72
2022/02/12 04:15:12;;;;;;;6.78;3.00;;;179.20;2252.80;;;;;;5068437;28;20025;-71
2022/02/12 04:17:38;;;;;;;4.93;3.20;;;179.20;2252.80;;;;;;5074840;28;20016;-72
2022/02/12 04:20:09;;;;;;;7.38;3.20;;;179.20;2252.80;;;;;;5076161;28;20013;-71
2022/02/12 04:22:36;;;;;;;9.02;3.90;;;179.20;2252.80;;;;;;5071877;28;20032;-73
2022/02/12 04:25:04;;;;;;;8.40;3.63;;;154.50;2252.80;;;;;;5072597;28;20040;-71
2022/02/12 04:27:29;;;;;;;6.40;4.05;;;154.50;2252.80;;;;;;5071726;28;20120;-71
2022/02/12 04:29:56;;;;;;;4.85;3.20;;;154.50;2252.80;;;;;;5069505;28;20123;-71
2022/02/12 04:32:21;;;;;;;5.93;2.97;;;154.40;2252.80;;;;;;5069173;28;20032;-71
2022/02/12 04:34:48;;;;;;;5.07;3.22;;;154.40;2252.80;;;;;;5071035;28;20102;-72
2022/02/12 04:37:15;;;;;;;8.60;3.35;;;154.30;2252.80;;;;;;5072432;28;20487;-72
2022/02/12 04:39:41;;;;;;;4.68;3.10;;;154.20;2252.80;;;;;;5073120;28;20025;-72
2022/02/12 04:42:11;;;;;;;9.40;2.70;;;154.10;2252.80;;;;;;5071727;28;20023;-72
2022/02/12 04:44:39;;;;;;;4.72;3.35;;;154.10;2252.80;;;;;;5071378;28;20380;-72
2022/02/12 04:47:05;;;;;;;6.35;3.20;;;154.00;2252.80;;;;;;5072433;28;20054;-72
2022/02/12 04:49:30;;;;;;;7.45;3.40;;;153.90;2252.80;;;;;;5072711;28;20034;-72
2022/02/12 04:51:56;;;;;;;7.90;3.72;;;153.90;2252.80;;;;;;5072863;28;20031;-73
2022/02/12 04:54:22;;;;;;;10.65;3.40;;;153.80;2252.80;;;;;;5073250;28;20035;-75
2022/02/12 04:56:48;;;;;;;12.25;4.22;;;153.70;2252.80;;;;;;5071537;28;20033;-72
2022/02/12 04:59:13;;;;;;;8.88;4.70;;;153.70;2252.80;;;;;;5073063;28;20070;-71
2022/02/12 05:01:39;;;;;;;7.22;3.50;;;153.60;2252.80;;;;;;5071261;28;20112;-72
2022/02/12 05:04:05;;;;;;;4.75;3.10;;;153.60;2252.80;;;;;;5071719;28;20033;-70
2022/02/12 05:06:31;;;;;;;5.82;3.53;;;128.90;2252.80;;;;;;5072992;28;20082;-72
2022/02/12 05:08:56;;;;;;;6.38;3.42;;;128.90;2252.80;;;;;;5059123;28;20458;-70
2022/02/12 05:11:22;;;;;;;7.43;4.05;;;128.80;2252.80;;;;;;5053059;28;20043;-70
2022/02/12 05:13:48;;;;;;;5.38;3.72;;;128.80;2252.80;;;;;;5071313;28;20020;-70
2022/02/12 05:16:14;;;;;;;5.03;3.22;;;128.70;2252.80;;;;;;5071533;28;20492;-72
2022/02/12 05:18:39;;;;;;;5.28;3.25;;;128.70;2252.80;;;;;;5072785;28;20461;-71
2022/02/12 05:21:05;;;;;;;5.80;3.40;;;128.70;2252.80;;;;;;5072571;28;20487;-71
2022/02/12 05:23:31;;;;;;;7.30;3.65;;;128.70;2252.80;;;;;;5072350;28;20095;-71
2022/02/12 05:25:57;;;;;;;12.63;3.47;;;128.50;2252.80;;;;;;5071940;28;20048;-71
2022/02/12 05:28:22;;;;;;;7.10;3.90;;;128.50;2252.80;;;;;;5071881;28;20453;-71
2022/02/12 05:30:48;;;;;;;6.65;3.60;;;128.50;2252.80;;;;;;5071813;28;20508;-72
2022/02/12 05:33:14;;;;;;;6.53;3.75;;;128.40;2252.80;;;;;;5065340;28;20503;-71
2022/02/12 05:35:41;;;;;;;8.75;3.83;;;128.40;2252.80;;;;;;5053676;28;20078;-71
2022/02/12 05:38:07;;;;;;;11.05;5.82;;;128.40;2252.80;;;;;;5072070;28;20027;-71
2022/02/12 05:40:33;;;;;;;8.82;4.50;;;128.30;2252.80;;;;;;5070454;28;20028;-73
2022/02/12 05:43:00;;;;;;;11.07;4.40;;;128.20;2252.80;;;;;;5072516;28;20020;-72
2022/02/12 05:45:26;;;;;;;11.18;4.50;;;128.20;2252.80;;;;;;5071133;28;20024;-72
2022/02/12 05:47:52;;;;;;;9.13;5.22;;;128.20;2252.80;;;;;;5071822;28;20024;-73
2022/02/12 05:50:17;;;;;;;7.05;4.70;;;128.20;2252.80;;;;;;5072337;28;20024;-71
2022/02/12 05:52:43;;;;;;;11.48;5.32;;;128.20;2252.80;;;;;;5072381;28;20017;-73
2022/02/12 05:55:09;;;;;;;9.13;4.90;;;128.10;2252.80;;;;;;5071550;28;20472;-73
2022/02/12 05:57:35;;;;;;;11.93;6.07;;;128.10;2252.80;;;;;;5071889;28;20082;-72
2022/02/12 06:00:00;;;;;;;8.75;5.32;;;128.00;2252.80;;;;;;5071778;28;20494;-71
2022/02/12 06:02:26;;;;;;;7.57;5.25;;;128.00;2252.80;;;;;;5071043;28;20111;-72
2022/02/12 06:04:52;;;;;;;9.80;5.68;;;103.30;2227.20;;;;;;5072070;28;20060;-72
2022/02/12 06:07:18;;;;;;;10.10;5.00;;;128.00;2252.80;;;;;;5072133;28;20062;-72
2022/02/12 06:09:44;;;;;;;12.27;5.63;;;128.00;2252.80;;;;;;5072137;28;20021;-72
2022/02/12 06:12:10;;;;;;;9.95;5.35;;;128.00;2252.80;;;;;;5072072;28;20035;-72
2022/02/12 06:14:35;;;;;;;8.85;5.50;;;103.30;2227.20;;;;;;5072018;28;20051;-72
2022/02/12 06:17:01;;;;;;;8.90;5.85;;;103.30;2227.20;;;;;;5071319;28;20025;-73
2022/02/12 06:19:27;;;;;;;9.82;5.65;;;103.30;2227.20;;;;;;5068630;28;20051;-71
2022/02/12 06:21:53;;;;;;;16.85;5.85;;;103.30;2227.20;;;;;;5070414;28;20441;-72
2022/02/12 06:24:19;;;;;;;12.45;6.25;;;103.20;2227.20;;;;;;5069640;28;20048;-72
2022/02/12 06:26:51;;;;;;;9.60;5.25;;;103.20;2227.20;;;;;;5072218;28;20402;-71
2022/02/12 06:29:17;;;;;;;10.30;5.38;;;103.30;2227.20;;;;;;5072135;28;20020;-72
2022/02/12 06:31:44;;;;;;;9.80;6.00;;;128.00;2252.80;;;;;;5071697;28;20024;-71
2022/02/12 06:34:10;;;;;;;15.45;9.23;;;103.30;2227.20;;;;;;5071935;28;20017;-72
2022/02/12 06:36:36;;;;;;;13.95;8.25;;;128.00;2252.80;;;;;;5071819;28;20031;-71
2022/02/12 06:39:02;;;;;;;12.85;7.00;;;128.00;2252.80;;;;;;5071902;28;20024;-71
2022/02/12 06:41:28;;;;;;;17.60;7.78;;;128.10;2252.80;;;;;;5071885;28;20050;-72
2022/02/12 06:43:53;;;;;;;10.85;6.10;;;128.10;2252.80;;;;;;5071659;28;20100;-71
2022/02/12 06:46:19;;;;;;;10.55;6.95;;;128.20;2252.80;;;;;;5071702;28;20025;-72
2022/02/12 06:48:45;;;;;;;10.20;5.82;;;128.20;2252.80;;;;;;5071745;28;20033;-72
2022/02/12 06:51:14;;;;;;;15.82;5.75;;;128.20;2252.80;;;;;;5070230;28;20026;-71
2022/02/12 06:53:39;;;;;;;10.75;5.53;;;128.20;2252.80;;;;;;5066698;28;20027;-71
2022/02/12 06:56:09;;;;;;;12.63;7.25;;;128.30;2252.80;;;;;;5068347;28;20107;-72
2022/02/12 06:58:34;;;;;;;13.30;6.60;;;128.30;2252.80;;;;;;5055816;28;20029;-71
2022/02/12 07:01:00;;;;;;;11.85;5.93;;;128.30;2252.80;;;;;;5074282;28;20135;-72
2022/02/12 07:03:26;;;;;;;14.27;7.45;;;128.30;2252.80;;;;;;5075158;28;20051;-71
2022/02/12 07:05:51;;;;;;;14.75;7.00;;;128.40;2252.80;;;;;;5077459;28;20531;-72
2022/02/12 07:08:17;;;;;;;12.10;5.22;;;128.40;2252.80;;;;;;5072173;28;20138;-72
2022/02/12 07:10:43;;;;;;;10.40;6.75;;;128.50;2252.80;;;;;;5073447;28;20035;-72
2022/02/12 07:13:10;;;;;;;8.35;5.97;;;128.50;2252.80;;;;;;5074633;28;20034;-72
2022/02/12 07:15:36;;;;;;;15.75;6.63;;;128.50;2252.80;;;;;;5068352;28;20039;-72
2022/02/12 07:18:01;;;;;;;10.05;6.03;;;128.60;2252.80;;;;;;5068585;28;20099;-72
2022/02/12 07:20:27;;;;;;;10.95;7.15;;;128.70;2252.80;;;;;;5068199;28;20028;-72
2022/02/12 07:22:53;;;;;;;11.18;6.38;;;128.70;2252.80;;;;;;5074456;28;20752;-72
2022/02/12 07:25:19;;;;;;;8.95;5.20;;;128.80;2252.80;;;;;;5071664;28;20044;-72
2022/02/12 07:27:45;;;;;;;10.57;5.72;;;128.90;2252.80;;;;;;5073348;28;20032;-72
2022/02/12 07:30:14;;;;;;;10.82;6.82;;;153.60;2252.80;;;;;;5069027;28;20067;-72
2022/02/12 07:32:43;;;;;;;13.27;5.85;;;153.70;2252.80;;;;;;5087309;28;20183;-72
2022/02/12 07:35:10;;;;;;;9.07;5.68;;;153.70;2252.80;;;;;;5065993;28;20535;-72
2022/02/12 07:37:40;;;;;;;9.63;5.72;;;153.80;2252.80;;;;;;5074307;28;20025;-72
2022/02/12 07:40:07;;;;;;;11.48;5.50;;;153.80;2252.80;;;;;;5071364;28;20029;-72
2022/02/12 07:42:34;;;;;;;12.05;5.05;;;153.90;2252.80;;;;;;5071991;28;20483;-73
2022/02/12 07:45:00;;;;;;;10.35;5.28;;;153.90;2252.80;;;;;;5070069;28;20506;-74
2022/02/12 07:47:25;;;;;;;13.80;7.57;;;154.00;2252.80;;;;;;5072832;28;20032;-71
2022/02/12 07:49:51;;;;;;;9.02;5.53;;;154.20;2252.80;;;;;;5072468;28;20028;-72
2022/02/12 07:52:18;;;;;;;9.90;4.47;;;154.30;2252.80;;;;;;5069382;28;20028;-71
2022/02/12 07:54:44;;;;;;;6.38;4.00;;;154.40;2252.80;;;;;;5069870;28;20032;-70
2022/02/12 07:57:09;;;;;;;7.35;4.00;;;154.50;2252.80;;;;;;5066977;28;20506;-71
2022/02/12 07:59:35;;;;;;;10.70;4.38;;;179.20;2252.80;;;;;;5073895;28;20017;-70
2022/02/12 08:02:01;;;;;;;9.05;5.47;;;179.30;2252.80;;;;;;5073593;28;20103;-70
2022/02/12 08:04:28;;;;;;;7.88;3.88;;;179.40;2252.80;;;;;;5072213;28;20464;-70
2022/02/12 08:09:38;;;;;;;5.47;3.97;;;179.60;2252.80;;;;;;5073168;28;20023;-70
2022/02/12 08:12:13;;;;;;;6.50;4.35;;;179.70;2252.80;;;;;;5069012;28;20443;-69
2022/02/12 08:14:47;;;;;;;5.40;3.83;;;179.70;2252.80;;;;;;5071473;28;20025;-70
2022/02/12 08:17:17;;;;;;;5.38;3.88;;;179.80;2252.80;;;;;;5071557;28;20078;-70
2022/02/12 08:19:48;;;;;;;5.95;4.07;;;179.90;2252.80;;;;;;5071292;28;20035;-70
2022/02/12 08:22:15;;;;;;;5.80;3.97;;;180.00;2252.80;;;;;;5071320;28;20027;-71
2022/02/12 08:24:41;;;;;;;7.65;4.25;;;204.90;2252.80;;;;;;5070197;28;20052;-71
2022/02/12 08:27:11;;;;;;;7.20;3.72;;;204.90;2252.80;;;;;;5071132;28;20052;-71
2022/02/12 08:29:41;;;;;;;9.57;5.05;;;205.10;2252.80;;;;;;5069219;28;20029;-71
2022/02/12 08:32:07;;;;;;;8.55;5.18;;;205.20;2252.80;;;;;;5066596;28;20552;-72
2022/02/12 08:34:34;;;;;;;9.90;5.20;;;205.20;2252.80;;;;;;5070948;28;20040;-73
2022/02/12 08:37:00;;;;;;;10.82;4.43;;;205.50;2252.80;;;;;;5070595;28;20380;-71
2022/02/12 08:39:26;;;;;;;9.30;4.63;;;205.50;2252.80;;;;;;5067877;28;20025;-71
2022/02/12 08:41:52;;;;;;;10.00;4.70;;;205.60;2252.80;;;;;;5067033;28;20024;-71
2022/02/12 08:44:18;;;;;;;8.55;4.25;;;205.40;2252.80;;;;;;5069514;28;20061;-71
2022/02/12 08:46:44;;;;;;;9.27;5.25;;;205.40;2252.80;;;;;;5073288;28;20046;-71
2022/02/12 08:49:10;;;;;;;6.90;4.05;;;205.60;2252.80;;;;;;5071608;28;20460;-71
2022/02/12 08:51:39;;;;;;;8.77;5.82;;;205.70;2252.80;;;;;;5072931;28;20131;-71
2022/02/12 08:54:06;;;;;;;8.23;5.25;;;230.60;2252.80;;;;;;5073177;28;20032;-71
2022/02/12 08:56:33;;;;;;;9.63;5.40;;;230.80;2252.80;;;;;;5072271;28;20059;-71
2022/02/12 08:59:00;;;;;;;12.68;5.68;;;230.90;2252.80;;;;;;5073109;28;20369;-71
2022/02/12 09:01:26;;;;;;;9.40;5.18;;;231.10;2252.80;;;;;;5073156;28;20032;-71
2022/02/12 09:03:52;;;;;;;10.40;5.45;;;230.90;2252.80;;;;;;5071385;28;20375;-72
2022/02/12 09:06:18;;;;;;;11.40;6.10;;;231.10;2252.80;;;;;;5073042;28;20025;-71
2022/02/12 09:08:43;;;;;;;7.57;4.65;;;231.00;2252.80;;;;;;5071540;28;20028;-71
2022/02/12 09:11:09;;;;;;;7.68;4.50;;;231.30;2252.80;;;;;;5070837;28;20032;-73
2022/02/12 09:13:35;;;;;;;9.48;4.78;;;256.20;2252.80;;;;;;5068753;28;20032;-73
2022/02/12 09:16:00;;;;;;;6.93;4.65;;;256.40;2252.80;;;;;;5061944;28;20040;-72
2022/02/12 09:18:26;;;;;;;8.32;5.00;;;256.50;2252.80;;;;;;5067232;28;20127;-72
2022/02/12 09:20:52;;;;;;;10.45;5.07;;;256.50;2252.80;;;;;;5072810;28;20714;-73
2022/02/12 09:23:18;;;;;;;9.15;5.28;;;256.70;2252.80;;;;;;5057016;28;20025;-73
2022/02/12 09:25:43;;;;;;;8.55;5.63;;;256.80;2252.80;;;;;;5067996;28;20059;-73
2022/02/12 09:28:09;;;;;;;7.28;5.40;;;256.90;2252.80;;;;;;5065482;28;20104;-73
2022/02/12 09:30:35;;;;;;;7.93;4.88;;;282.10;2150.40;;;;;;5072804;28;20372;-73
2022/02/12 09:33:01;;;;;;;17.67;6.57;;;282.00;2176.00;;;;;;5066277;28;20043;-73
2022/02/12 09:35:27;;;;;;;17.50;10.70;;;282.10;2227.20;;;;;;5071456;28;20025;-73
2022/02/12 09:37:52;;;;;;;9.82;6.38;;;307.20;2099.20;;;;;;5072332;28;20479;-73
2022/02/12 09:40:18;;;;;;;8.13;5.22;;;307.30;2022.40;;;;;;5072240;28;20027;-73
2022/02/12 09:42:47;;;;;;;10.05;5.80;;;307.30;2048.00;;;;;;5070242;28;20024;-73
2022/02/12 09:45:13;;;;;;;11.88;6.28;;;307.70;1971.20;;;;;;5071324;28;20491;-74
2022/02/12 09:47:46;;;;;;;11.68;7.97;;;308.00;1945.60;;;;;;5071037;28;20025;-73
2022/02/12 09:50:13;;;;;;;19.63;8.60;;;333.10;1868.80;;;;;;5071226;28;20028;-73
2022/02/12 09:52:42;;;;;;;7.90;6.07;;;333.30;1792.00;;;;;;5072447;28;20021;-73
2022/02/12 09:55:08;;;;;;;13.80;6.97;;;333.50;1766.40;;;;;;5066271;28;20507;-73
2022/02/12 09:57:34;;;;;;;12.90;6.75;;;333.30;1766.40;;;;;;5056358;28;20029;-73
2022/02/12 10:00:04;;;;;;;14.30;8.98;;;333.40;1766.40;;;;;;5070150;28;20479;-73
2022/02/12 10:02:29;;;;;;;14.18;9.77;;;333.50;1715.20;;;;;;5066893;28;20033;-73
2022/02/12 10:05:22;;;;;;;12.07;8.65;;;333.70;1715.20;;;;;;5070233;28;20028;-73
2022/02/12 10:07:50;;;;;;;12.15;7.30;;;358.80;1664.00;;;;;;5070030;28;20024;-73
2022/02/12 10:10:19;;;;;;;16.90;8.68;;;358.50;1664.00;;;;;;5072086;28;20562;-73
2022/02/12 10:12:45;;;;;;;22.30;11.43;;;358.40;1664.00;;;;;;5071896;28;20400;-73
2022/02/12 10:15:13;;;;;;;15.15;10.10;;;358.90;1612.80;;;;;;5071927;28;20035;-74
2022/02/12 10:17:55;;;;;;;15.35;9.98;;;359.00;1612.80;;;;;;5071551;28;20378;-73
2022/02/12 10:20:33;;;;;;;11.90;6.70;;;384.20;1561.60;;;;;;5071577;28;20083;-73
2022/02/12 10:23:19;;;;;;;17.92;12.82;;;384.40;1484.80;;;;;;5072309;28;20031;-73
2022/02/12 10:26:07;;;;;;;17.75;12.63;;;409.80;1484.80;;;;;;5070635;28;20048;-73
2022/02/12 10:28:35;;;;;;;13.82;9.55;;;409.90;1459.20;;;;;;5075196;28;20044;-73
2022/02/12 10:31:02;;;;;;;12.48;8.45;;;410.30;1433.60;;;;;;5075111;28;20032;-73
2022/02/12 10:33:31;;;;;;;9.75;7.18;;;410.50;1408.00;;;;;;5076168;28;20024;-73
2022/02/12 10:36:03;;;;;;;9.57;7.53;;;435.50;1356.80;;;;;;5076092;28;20058;-73
2022/02/12 10:38:33;;;;;;;13.48;9.07;;;435.40;1356.80;;;;;;5076021;28;20121;-73
2022/02/12 10:41:12;;;;;;;15.20;11.57;;;435.70;1331.20;;;;;;5074713;28;20033;-73
2022/02/12 10:43:40;;;;;;;11.63;8.00;;;435.80;1331.20;;;;;;5076241;28;20024;-73
2022/02/12 10:46:06;;;;;;;17.52;11.95;;;435.80;1305.60;;;;;;5075279;28;20052;-73
2022/02/12 10:48:38;;;;;;;14.00;11.50;;;460.90;1305.60;;;;;;5073280;28;20033;-73
2022/02/12 10:51:11;;;;;;;11.85;8.10;;;460.90;1305.60;;;;;;5065567;28;20041;-73
2022/02/12 10:53:58;;;;;;;14.73;10.52;;;461.20;1254.40;;;;;;5073340;28;20529;-73
2022/02/12 10:56:27;;;;;;;13.52;9.80;;;461.30;1254.40;;;;;;5071136;28;20511;-74
2022/02/12 10:58:53;;;;;;;22.67;13.55;;;461.40;1254.40;;;;;;5066786;28;20025;-73
2022/02/12 11:01:20;;;;;;;14.15;9.38;;;486.40;1228.80;;;;;;5067810;28;20093;-72
2022/02/12 11:03:46;;;;;;;9.35;7.22;;;486.50;1203.20;;;;;;5069384;28;20033;-72
2022/02/12 11:06:14;;;;;;;14.68;9.75;;;486.40;1203.20;;;;;;5074763;28;20048;-73
2022/02/12 11:08:40;;;;;;;8.15;7.05;;;461.70;1228.80;;;;;;5067781;28;20024;-72
2022/02/12 11:11:06;;;;;;;19.17;11.38;;;461.70;1203.20;;;;;;5074464;28;20025;-72
2022/02/12 11:13:33;;;;;;;9.00;7.28;;;486.70;1177.60;;;;;;5074369;28;20047;-71
2022/02/12 11:15:59;;;;;;;16.13;8.88;;;486.80;1152.00;;;;;;5073576;28;20741;-71
2022/02/12 11:18:26;;;;;;;12.45;8.85;;;486.80;1177.60;;;;;;5073815;28;20044;-71
2022/02/12 11:20:55;;;;;;;14.25;8.40;;;486.80;1152.00;;;;;;5072481;28;20013;-70
2022/02/12 11:23:27;;;;;;;12.13;6.50;;;486.50;1152.00;;;;;;5072516;28;20025;-71
2022/02/12 11:26:01;;;;;;;9.82;6.95;;;461.20;1203.20;;;;;;5073606;28;20037;-71
2022/02/12 11:28:30;;;;;;;9.13;6.90;;;486.60;1152.00;;;;;;5072897;28;20505;-71
2022/02/12 11:31:25;;;;;;;14.15;6.97;;;487.30;1126.40;;;;;;5071387;28;20111;-71
2022/02/12 11:34:12;;;;;;;10.55;6.50;;;487.30;1100.80;;;;;;5073488;28;20032;-71
2022/02/12 11:36:45;;;;;;;11.60;7.95;;;512.00;1100.80;;;;;;5072197;28;20031;-70
2022/02/12 11:39:18;;;;;;;7.82;4.97;;;512.30;1075.20;;;;;;5071983;28;20593;-70
2022/02/12 11:41:45;;;;;;;12.68;7.60;;;512.50;1049.60;;;;;;5072748;28;20062;-70
2022/02/12 11:44:48;;;;;;;7.55;5.97;;;512.20;1075.20;;;;;;5072327;28;20025;-70
2022/02/12 11:47:14;;;;;;;10.07;6.57;;;487.00;1100.80;;;;;;5071755;28;20056;-70
2022/02/12 11:49:44;;;;;;;9.70;6.47;;;461.70;1152.00;;;;;;5072920;28;20027;-70
2022/02/12 11:52:15;;;;;;;15.93;7.68;;;486.80;1126.40;;;;;;5073530;28;20032;-70
2022/02/12 11:54:43;;;;;;;11.20;7.30;;;461.70;1177.60;;;;;;5071489;28;20025;-71
2022/02/12 11:57:11;;;;;;;10.02;7.38;;;461.50;1177.60;;;;;;5070144;28;20020;-72
2022/02/12 11:59:37;;;;;;;7.78;6.63;;;461.40;1203.20;;;;;;5071377;28;20071;-72
2022/02/12 12:02:03;;;;;;;8.25;6.22;;;461.40;1177.60;;;;;;5071377;28;20062;-72
2022/02/12 12:04:33;;;;;;;12.75;7.65;;;487.00;1152.00;;;;;;5071494;28;20081;-72
2022/02/12 12:07:09;;;;;;;12.63;7.82;;;512.30;1100.80;;;;;;5071999;28;20029;-72
2022/02/12 12:09:37;;;;;;;12.43;7.15;;;512.30;1100.80;;;;;;5067764;28;20031;-72
2022/02/12 12:12:21;;;;;;;11.48;5.65;;;435.60;1203.20;;;;;;5072156;28;20100;-72
2022/02/12 12:14:52;;;;;;;6.75;5.00;;;384.40;1254.40;;;;;;5071564;28;20124;-72
2022/02/12 12:17:23;;;;;;;11.88;6.45;;;358.70;1331.20;;;;;;5072477;28;20036;-72
2022/02/12 12:19:51;;;;;;;11.32;7.20;;;359.00;1305.60;;;;;;5074229;28;20021;-72
2022/02/12 12:22:17;;;;;;;9.05;6.00;;;333.60;1382.40;;;;;;5071451;28;20491;-71
2022/02/12 12:24:43;;;;;;;10.05;6.65;;;333.30;1408.00;;;;;;5061577;28;20049;-72